Time;durP1;ratioP1;P1;durP2;ratioP2;P2;SDS_P1;SDS_P2;PMS_P1;PMS_P2;Temp;Humidity;BMP_temperature;BMP_pressure;BME280_temperature;BME280_humidity;BME280_pressure;Samples;Min_cycle;Max_cycle;Signal;HPM_P1;HPM_P2
2021/06/14 00:01:36;;;;;;;4.65;1.80;;;;;;;23.50;59.24;101136.94;4420087;32;20085;-76
2021/06/14 00:04:02;;;;;;;2.12;1.83;;;;;;;23.42;59.53;101130.94;4420150;32;20064;-75
2021/06/14 00:06:28;;;;;;;4.68;1.92;;;;;;;23.39;59.68;101134.84;4425125;32;20069;-76
2021/06/14 00:08:53;;;;;;;2.62;1.80;;;;;;;23.43;59.62;101135.37;4421103;32;20096;-75
2021/06/14 00:11:19;;;;;;;3.25;1.75;;;;;;;23.32;59.99;101126.72;4418826;32;20109;-75
2021/06/14 00:13:45;;;;;;;4.10;1.50;;;;;;;23.27;60.22;101116.03;4424044;32;20017;-75
2021/06/14 00:16:11;;;;;;;3.22;1.77;;;;;;;23.21;60.54;101111.53;4421642;32;20133;-75
2021/06/14 00:18:37;;;;;;;3.05;1.55;;;;;;;23.19;60.73;101108.37;4421542;32;20041;-75
2021/06/14 00:21:08;;;;;;;3.95;1.50;;;;;;;23.09;61.08;101112.78;4424203;32;20318;-75
2021/06/14 00:23:34;;;;;;;2.90;1.73;;;;;;;23.03;61.22;101106.22;4423544;32;20077;-75
2021/06/14 00:26:02;;;;;;;2.22;1.60;;;;;;;22.98;61.46;101104.91;4423304;32;20047;-74
2021/06/14 00:28:28;;;;;;;2.28;1.87;;;;;;;23.02;61.54;101111.22;4418998;32;20101;-75
2021/06/14 00:30:55;;;;;;;5.95;1.80;;;;;;;22.97;61.70;101109.09;4421629;32;20064;-75
2021/06/14 00:33:21;;;;;;;4.80;2.00;;;;;;;22.99;61.63;101097.09;4421678;32;20623;-75
2021/06/14 00:35:48;;;;;;;6.40;1.80;;;;;;;22.87;62.10;101098.34;4422345;32;20156;-74
2021/06/14 00:38:15;;;;;;;3.33;2.20;;;;;;;22.83;62.27;101089.19;4422976;32;20116;-74
2021/06/14 00:40:41;;;;;;;3.00;2.00;;;;;;;22.85;62.20;101098.06;4423270;32;20074;-75
2021/06/14 00:43:08;;;;;;;4.93;2.12;;;;;;;22.78;62.45;101084.22;4423823;32;20613;-74
2021/06/14 00:45:38;;;;;;;3.83;2.60;;;;;;;22.79;62.48;101089.44;4423227;32;20045;-74
2021/06/14 00:48:05;;;;;;;2.60;2.00;;;;;;;22.87;62.27;101092.59;4418960;32;20138;-74
2021/06/14 00:50:52;;;;;;;3.00;1.83;;;;;;;22.76;62.68;101087.59;4421910;32;20403;-74
2021/06/14 00:53:22;;;;;;;3.17;2.47;;;;;;;22.82;62.48;101087.63;4422168;32;20098;-75
2021/06/14 00:55:49;;;;;;;4.93;2.35;;;;;;;22.87;62.33;101092.59;4424690;32;20414;-75
2021/06/14 00:58:16;;;;;;;4.80;2.42;;;;;;;22.83;62.43;101086.34;4419518;32;20131;-75
2021/06/14 01:00:42;;;;;;;4.22;2.35;;;;;;;22.71;62.96;101078.97;4418833;32;20097;-75
2021/06/14 01:03:08;;;;;;;6.75;2.65;;;;;;;22.75;62.85;101074.56;4421206;32;20799;-75
2021/06/14 01:05:39;;;;;;;3.92;2.45;;;;;;;22.77;62.79;101071.94;4424310;32;20394;-74
2021/06/14 01:08:07;;;;;;;2.95;2.28;;;;;;;22.73;62.96;101070.66;4424818;32;20077;-73
2021/06/14 01:10:34;;;;;;;4.80;2.60;;;;;;;22.73;62.91;101070.66;4423322;32;20073;-74
2021/06/14 01:15:49;;;;;;;4.47;2.85;;;;;;;23.06;62.68;101059.25;4427980;31;853858;-75
2021/06/14 01:18:22;;;;;;;5.62;2.83;;;;;;;23.06;62.68;101059.25;4449341;32;20143;-74
2021/06/14 01:21:03;;;;;;;5.62;2.90;;;;;;;22.67;63.31;101061.22;4444850;32;20041;-74
2021/06/14 01:23:58;;;;;;;5.72;3.03;;;;;;;22.70;63.28;101052.34;4445525;32;20052;-74
2021/06/14 01:26:28;;;;;;;4.35;2.95;;;;;;;22.64;63.56;101057.28;4447580;32;20195;-74
2021/06/14 01:28:59;;;;;;;5.68;3.08;;;;;;;22.62;63.65;101051.28;4446678;32;20759;-74
2021/06/14 01:31:30;;;;;;;5.07;3.12;;;;;;;22.59;63.61;101037.19;4445015;32;20111;-75
2021/06/14 01:33:58;;;;;;;7.32;2.90;;;;;;;22.58;63.50;101027.00;4448511;32;20076;-74
2021/06/14 01:36:25;;;;;;;3.60;2.75;;;;;;;;;;4443459;32;20500;-74
2021/06/14 01:38:51;;;;;;;5.00;2.92;;;;;;;22.46;62.73;101025.38;4448733;32;20054;-74
2021/06/14 01:41:18;;;;;;;6.75;2.90;;;;;;;22.46;62.21;101026.13;4441400;32;20048;-75
2021/06/14 01:43:45;;;;;;;5.53;2.53;;;;;;;22.42;62.00;101024.81;4446218;32;20097;-74
2021/06/14 01:46:17;;;;;;;7.37;3.08;;;;;;;22.37;61.53;101019.84;4447262;32;20347;-74
2021/06/14 01:48:44;;;;;;;6.45;2.30;;;;;;;22.43;60.53;100995.59;4443836;32;20022;-74
2021/06/14 01:51:12;;;;;;;4.45;2.33;;;;;;;22.46;60.23;101011.78;4449242;32;20094;-74
2021/06/14 01:53:38;;;;;;;4.53;2.53;;;;;;;22.50;59.89;101005.84;4445209;32;20068;-74
2021/06/14 01:56:07;;;;;;;3.75;2.35;;;;;;;22.49;59.71;101010.75;4448938;32;20080;-74
2021/06/14 01:58:35;;;;;;;4.78;2.50;;;;;;;22.43;59.62;101012.81;4443777;32;20199;-75
2021/06/14 02:01:02;;;;;;;3.65;2.30;;;;;;;22.51;59.26;101013.94;4439394;32;20146;-74
2021/06/14 02:03:29;;;;;;;5.43;2.70;;;;;;;22.49;59.02;101010.75;4429161;32;20045;-74
2021/06/14 02:05:56;;;;;;;6.97;2.72;;;;;;;22.40;59.24;101015.94;4432699;32;20029;-74
2021/06/14 02:08:23;;;;;;;6.78;2.45;;;;;;;22.34;59.39;101015.94;4430555;32;20099;-74
2021/06/14 02:10:50;;;;;;;3.00;2.30;;;;;;;22.40;59.08;101004.47;4429083;32;20171;-74
2021/06/14 02:13:19;;;;;;;4.15;2.40;;;;;;;22.46;58.62;101008.91;4432299;32;20033;-74
2021/06/14 02:15:45;;;;;;;4.20;2.33;;;;;;;22.43;58.59;101012.81;4429984;32;20089;-75
2021/06/14 02:18:12;;;;;;;5.28;2.58;;;;;;;22.46;58.41;101017.53;4432971;32;20084;-75
2021/06/14 02:20:42;;;;;;;5.72;2.28;;;;;;;22.48;58.04;101009.19;4430352;32;20154;-75
2021/06/14 02:23:08;;;;;;;4.68;2.15;;;;;;;22.57;57.79;101011.09;4430004;32;20034;-74
2021/06/14 02:25:33;;;;;;;3.83;2.30;;;;;;;22.53;57.69;101011.34;4425582;32;20029;-75
2021/06/14 02:27:59;;;;;;;4.87;2.30;;;;;;;22.50;57.58;101012.38;4417841;32;20505;-75
2021/06/14 02:30:26;;;;;;;7.57;2.35;;;;;;;22.59;57.11;100999.87;4421247;32;20078;-74
2021/06/14 02:32:53;;;;;;;4.10;2.05;;;;;;;22.50;57.18;101002.97;4419165;32;20056;-74
2021/06/14 02:35:22;;;;;;;4.40;2.35;;;;;;;22.48;57.23;100991.19;4419304;32;20041;-74
2021/06/14 02:37:52;;;;;;;6.37;1.85;;;;;;;22.46;57.30;101003.19;4418355;32;20460;-74
2021/06/14 02:40:23;;;;;;;3.47;2.00;;;;;;;22.35;57.33;100996.63;4419588;32;20434;-74
2021/06/14 02:42:49;;;;;;;7.12;2.25;;;;;;;22.34;57.33;100978.66;4418522;32;20069;-75
2021/06/14 02:45:15;;;;;;;5.12;2.25;;;;;;;22.34;57.26;100987.25;4418321;32;20073;-75
2021/06/14 02:47:45;;;;;;;4.62;2.37;;;;;;;22.28;57.45;100999.97;4422230;32;20081;-75
2021/06/14 02:50:14;;;;;;;5.35;2.30;;;;;;;22.28;57.35;100997.91;4421310;32;20076;-74
2021/06/14 02:52:41;;;;;;;5.37;2.40;;;;;;;22.23;57.65;101000.72;4421225;32;20096;-74
2021/06/14 02:55:14;;;;;;;4.43;2.03;;;;;;;22.17;57.81;101000.69;4417395;32;20094;-74
2021/06/14 02:57:51;;;;;;;4.12;2.33;;;;;;;22.22;57.61;100997.09;4420480;32;20103;-75
2021/06/14 03:00:18;;;;;;;4.90;2.25;;;;;;;22.07;58.02;101004.28;4415736;32;20045;-74
2021/06/14 03:02:47;;;;;;;5.05;2.37;;;;;;;22.11;57.69;101001.94;4416809;32;20065;-75
2021/06/14 03:05:14;;;;;;;5.10;1.87;;;;;;;22.05;57.63;101001.12;4421545;32;20125;-74
2021/06/14 03:07:41;;;;;;;4.78;2.20;;;;;;;21.97;57.83;101002.94;4418355;32;20484;-74
2021/06/14 03:10:09;;;;;;;3.60;2.17;;;;;;;21.83;58.12;100995.25;4419565;32;20466;-74
2021/06/14 03:12:35;;;;;;;3.60;1.92;;;;;;;21.80;58.24;101002.00;4416354;32;20053;-75
2021/06/14 03:15:04;;;;;;;15.50;2.22;;;;;;;21.86;57.90;101000.75;4417249;32;20046;-74
2021/06/14 03:17:31;;;;;;;5.72;2.22;;;;;;;21.92;57.59;101003.66;4419409;32;20065;-74
2021/06/14 03:19:57;;;;;;;2.95;2.00;;;;;;;21.83;57.77;101009.59;4420033;32;20077;-74
2021/06/14 03:22:23;;;;;;;3.37;2.10;;;;;;;21.82;57.51;100994.50;4418417;32;20136;-75
2021/06/14 03:24:49;;;;;;;4.22;2.05;;;;;;;21.72;57.79;101003.75;4418987;32;20077;-74
2021/06/14 03:27:16;;;;;;;4.85;1.90;;;;;;;21.73;57.58;101003.25;4420455;32;20042;-74
2021/06/14 03:29:45;;;;;;;3.17;2.00;;;;;;;21.74;57.50;100993.37;4418024;32;20041;-75
2021/06/14 03:32:12;;;;;;;2.95;2.00;;;;;;;21.76;57.44;100998.59;4407573;32;20076;-75
2021/06/14 03:34:39;;;;;;;8.55;1.75;;;;;;;21.69;57.50;100999.81;4421563;32;20054;-74
2021/06/14 03:37:05;;;;;;;4.82;1.87;;;;;;;21.71;57.54;101002.97;4418229;32;20108;-75
2021/06/14 03:39:32;;;;;;;4.35;2.12;;;;;;;21.68;57.52;101004.78;4419585;32;20082;-74
2021/06/14 03:41:58;;;;;;;3.25;2.17;;;;;;;21.69;57.57;101005.53;4415464;32;20066;-74
2021/06/14 03:44:25;;;;;;;4.90;2.50;;;;;;;21.63;57.66;100994.06;4416594;32;20394;-74
2021/06/14 03:46:51;;;;;;;4.45;1.90;;;;;;;21.64;57.49;100992.75;4417601;32;20073;-76
2021/06/14 03:49:16;;;;;;;6.25;2.17;;;;;;;21.64;57.50;100991.97;4421961;32;20077;-75
2021/06/14 03:51:42;;;;;;;3.17;1.70;;;;;;;21.57;57.69;100992.47;4414541;32;20069;-75
2021/06/14 03:54:08;;;;;;;2.65;1.70;;;;;;;21.57;57.47;100996.09;4416616;32;20088;-78
2021/06/14 03:56:35;;;;;;;5.28;1.60;;;;;;;21.46;57.51;101000.94;4418529;32;20102;-74
2021/06/14 03:59:02;;;;;;;3.35;1.45;;;;;;;21.63;56.21;100996.91;4420292;32;20030;-74
2021/06/14 04:01:28;;;;;;;2.90;1.30;;;;;;;21.65;56.20;100990.69;4416532;32;20470;-73
2021/06/14 04:06:48;;;;;;;2.25;1.50;;;;;;;22.14;54.85;101010.31;4433109;31;688326;-74
2021/06/14 04:09:14;;;;;;;2.70;1.12;;;;;;;22.14;54.85;101010.31;4454893;32;20382;-74
2021/06/14 04:11:40;;;;;;;1.92;1.40;;;;;;;21.77;55.42;101000.16;4455934;32;20082;-73
2021/06/14 04:14:06;;;;;;;5.35;1.55;;;;;;;21.88;55.12;101005.97;4454704;32;20084;-74
2021/06/14 04:16:31;;;;;;;3.15;1.55;;;;;;;21.93;54.87;101006.03;4454844;32;20040;-74
2021/06/14 04:18:57;;;;;;;2.80;1.35;;;;;;;21.83;55.11;101013.25;4454234;32;20133;-74
2021/06/14 04:21:23;;;;;;;2.87;1.52;;;;;;;22.01;54.81;101009.19;4454540;32;20063;-74
2021/06/14 04:23:49;;;;;;;5.90;1.48;;;;;;;22.03;54.71;101015.97;4455342;32;20149;-74
2021/06/14 04:26:15;;;;;;;6.87;1.67;;;;;;;22.04;54.58;101025.38;4454836;32;20025;-74
2021/06/14 04:28:41;;;;;;;4.12;1.45;;;;;;;22.06;54.73;101025.66;4456727;32;20087;-75
2021/06/14 04:31:08;;;;;;;2.65;1.60;;;;;;;22.20;54.49;101016.09;4454487;32;20068;-74
2021/06/14 04:33:34;;;;;;;4.47;1.70;;;;;;;22.11;54.71;101013.41;4455934;32;20843;-75
2021/06/14 04:36:02;;;;;;;3.80;1.52;;;;;;;22.00;55.12;101010.50;4456902;32;20087;-75
2021/06/14 04:38:28;;;;;;;2.97;1.37;;;;;;;21.84;55.67;101005.44;4452821;32;20021;-74
2021/06/14 04:40:54;;;;;;;4.35;1.85;;;;;;;21.80;55.80;101016.34;4453520;32;20045;-74
2021/06/14 04:43:20;;;;;;;4.05;1.92;;;;;;;21.73;56.05;101006.13;4454671;32;20115;-74
2021/06/14 04:45:45;;;;;;;8.35;1.87;;;;;;;21.81;56.17;101006.47;4453064;32;20075;-74
2021/06/14 04:48:11;;;;;;;7.03;2.10;;;;;;;21.87;56.10;100998.69;4454015;32;20083;-74
2021/06/14 04:50:37;;;;;;;5.22;2.15;;;;;;;21.95;56.10;101005.50;4454995;32;20093;-75
2021/06/14 04:53:03;;;;;;;3.25;2.22;;;;;;;21.91;56.35;101013.56;4455392;32;20393;-75
2021/06/14 04:55:29;;;;;;;4.87;2.65;;;;;;;21.87;56.58;101015.88;4454916;32;20072;-75
2021/06/14 04:57:54;;;;;;;3.60;2.60;;;;;;;21.88;56.79;101017.44;4455829;32;20052;-75
2021/06/14 05:00:21;;;;;;;4.90;2.62;;;;;;;22.10;56.40;101017.59;4453543;32;20510;-75
2021/06/14 05:02:46;;;;;;;4.82;3.37;;;;;;;21.96;57.02;101025.06;4437491;32;20078;-75
2021/06/14 05:05:12;;;;;;;4.97;3.12;;;;;;;22.09;56.76;101013.16;4437593;32;20412;-75
2021/06/14 05:07:38;;;;;;;9.13;3.03;;;;;;;22.02;56.82;101014.41;4438926;32;20060;-74
2021/06/14 05:10:05;;;;;;;4.55;2.37;;;;;;;22.05;56.77;101013.41;4436223;32;20109;-75
2021/06/14 05:12:30;;;;;;;8.48;2.90;;;;;;;22.14;56.63;101018.12;4437330;32;20578;-75
2021/06/14 05:14:56;;;;;;;3.35;2.67;;;;;;;22.14;56.62;101018.12;4440050;32;20045;-75
2021/06/14 05:17:22;;;;;;;7.25;3.10;;;;;;;22.19;56.62;101018.19;4430210;32;20094;-75
2021/06/14 05:19:48;;;;;;;4.05;2.85;;;;;;;22.28;56.47;101017.97;4426139;32;20092;-75
2021/06/14 05:22:14;;;;;;;5.43;2.62;;;;;;;22.21;56.77;101018.44;4426098;32;20385;-75
2021/06/14 05:24:40;;;;;;;6.65;3.40;;;;;;;22.35;56.51;101010.97;4427879;32;20046;-75
2021/06/14 05:27:07;;;;;;;5.57;3.40;;;;;;;22.27;56.99;101018.50;4428413;32;20125;-75
2021/06/14 05:29:33;;;;;;;7.65;3.72;;;;;;;22.24;57.08;101023.16;4427612;32;20093;-75
2021/06/14 05:31:59;;;;;;;7.15;3.40;;;;;;;22.26;57.05;101032.03;4428016;32;20085;-75
2021/06/14 05:34:25;;;;;;;6.80;3.28;;;;;;;22.33;57.06;101030.78;4427445;32;20066;-75
2021/06/14 05:36:51;;;;;;;6.15;3.58;;;;;;;22.19;57.62;101020.25;4429212;32;20065;-75
2021/06/14 05:39:17;;;;;;;8.07;3.50;;;;;;;22.28;57.22;101026.56;4430563;32;20464;-74
2021/06/14 05:41:43;;;;;;;6.10;3.60;;;;;;;22.37;57.18;101019.84;4427749;32;20072;-75
2021/06/14 05:44:09;;;;;;;5.00;3.30;;;;;;;22.44;57.06;101025.09;4426195;32;20081;-75
2021/06/14 05:46:35;;;;;;;6.40;3.33;;;;;;;22.64;56.42;101022.09;4427848;32;20543;-74
2021/06/14 05:49:03;;;;;;;5.90;2.97;;;;;;;22.62;56.37;101025.47;4427470;32;20105;-74
2021/06/14 05:51:30;;;;;;;5.30;2.92;;;;;;;22.58;56.56;101019.19;4425685;32;20093;-72
2021/06/14 05:53:56;;;;;;;5.40;2.87;;;;;;;22.94;55.29;101017.47;4426558;32;20385;-75
2021/06/14 05:56:23;;;;;;;8.50;4.45;;;;;;;23.12;54.88;101023.53;4423987;32;20702;-73
2021/06/14 05:58:49;;;;;;;5.22;3.08;;;;;;;23.27;54.39;101009.75;4429522;32;20419;-73
2021/06/14 06:01:15;;;;;;;6.70;3.72;;;;;;;23.33;54.58;101010.56;4427012;32;20141;-73
2021/06/14 06:03:41;;;;;;;13.88;3.15;;;;;;;23.24;54.59;101004.25;4429321;32;20073;-74
2021/06/14 06:06:07;;;;;;;6.78;2.87;;;;;;;23.24;54.44;101005.06;4428592;32;20199;-74
2021/06/14 06:08:33;;;;;;;8.38;3.12;;;;;;;23.11;54.59;100998.22;4426296;32;20038;-73
2021/06/14 06:10:58;;;;;;;6.82;3.17;;;;;;;22.97;55.24;101013.56;4425786;32;20033;-74
2021/06/14 06:13:25;;;;;;;5.22;2.45;;;;;;;22.74;55.44;101015.59;4425173;32;20042;-74
2021/06/14 06:15:51;;;;;;;6.10;4.45;;;;;;;22.64;55.20;101011.38;4429033;32;20126;-74
2021/06/14 06:18:16;;;;;;;7.28;2.53;;;;;;;22.63;55.47;101012.69;4426869;32;20033;-74
2021/06/14 06:20:42;;;;;;;3.47;2.83;;;;;;;22.79;53.78;101019.78;4425603;32;20049;-74
2021/06/14 06:23:09;;;;;;;3.90;2.42;;;;;;;22.71;53.43;101027.31;4428341;32;20445;-74
2021/06/14 06:25:35;;;;;;;7.97;2.80;;;;;;;22.70;52.88;101025.78;4427501;32;20445;-74
2021/06/14 06:28:01;;;;;;;4.22;2.55;;;;;;;22.90;53.02;101031.31;4423895;32;20096;-74
2021/06/14 06:30:30;;;;;;;3.00;2.28;;;;;;;23.09;51.78;101032.38;4422561;32;20581;-74
2021/06/14 06:32:56;;;;;;;3.97;2.10;;;;;;;23.23;51.36;101040.00;4425230;32;20155;-75
2021/06/14 06:35:22;;;;;;;5.15;2.08;;;;;;;23.15;51.08;101039.72;4429984;32;20081;-75
2021/06/14 06:37:49;;;;;;;4.05;2.30;;;;;;;23.14;51.22;101031.62;4419042;32;20138;-74
2021/06/14 06:40:16;;;;;;;3.28;2.45;;;;;;;23.12;51.57;101037.91;4421423;32;20081;-74
2021/06/14 06:42:43;;;;;;;4.78;2.33;;;;;;;23.28;51.18;101039.25;4416038;32;20149;-73
2021/06/14 06:45:10;;;;;;;5.30;2.60;;;;;;;23.22;50.99;101044.16;4424538;32;20045;-74
2021/06/14 06:47:37;;;;;;;6.35;2.83;;;;;;;23.39;50.82;101042.16;4420053;32;20042;-74
2021/06/14 06:50:04;;;;;;;3.87;2.40;;;;;;;23.38;50.84;101047.09;4419510;32;20079;-74
2021/06/14 06:52:30;;;;;;;6.50;2.65;;;;;;;23.40;51.00;101044.50;4418629;32;20838;-74
2021/06/14 06:54:56;;;;;;;6.10;2.35;;;;;;;23.10;51.79;101046.22;4422589;32;20513;-74
2021/06/14 06:57:22;;;;;;;5.10;2.47;;;;;;;23.09;52.08;101041.00;4417633;32;20042;-74
2021/06/14 06:59:47;;;;;;;3.70;2.12;;;;;;;23.15;52.10;101042.59;4417530;32;20149;-74
2021/06/14 07:02:13;;;;;;;5.35;2.50;;;;;;;23.15;52.41;101036.06;4419270;32;20104;-74
2021/06/14 07:04:39;;;;;;;5.60;2.97;;;;;;;23.12;52.50;101046.50;4419623;32;20103;-74
2021/06/14 07:07:07;;;;;;;9.20;2.97;;;;;;;23.04;53.11;101033.19;4415127;32;20088;-74
2021/06/14 07:09:33;;;;;;;6.05;2.83;;;;;;;23.20;53.07;101041.03;4414708;32;20482;-75
2021/06/14 07:11:58;;;;;;;6.35;3.10;;;;;;;23.07;53.69;101043.63;4413259;32;20137;-74
2021/06/14 07:14:25;;;;;;;5.10;3.20;;;;;;;23.15;53.50;101047.53;4421119;32;20380;-73
2021/06/14 07:16:51;;;;;;;6.25;3.53;;;;;;;23.25;53.51;101048.91;4417488;32;20101;-73
2021/06/14 07:19:17;;;;;;;11.07;2.92;;;;;;;23.44;52.91;101050.75;4418098;32;20093;-74
2021/06/14 07:21:43;;;;;;;7.20;3.42;;;;;;;23.23;53.15;101060.09;4413268;32;20449;-73
2021/06/14 07:24:09;;;;;;;6.32;3.50;;;;;;;23.21;53.22;101054.88;4414521;32;20410;-74
2021/06/14 07:26:36;;;;;;;10.50;3.42;;;;;;;23.05;53.41;101049.88;4416232;32;20092;-74
2021/06/14 07:29:02;;;;;;;8.40;3.92;;;;;;;22.81;54.03;101048.75;4413964;32;20097;-76
2021/06/14 07:31:29;;;;;;;9.45;3.90;;;;;;;22.65;54.50;101052.34;4416483;32;21307;-74
2021/06/14 07:33:58;;;;;;;8.05;3.92;;;;;;;22.52;54.83;101060.63;4416002;32;20049;-77
2021/06/14 07:36:25;;;;;;;5.65;3.92;;;;;;;22.38;55.26;101047.22;4419125;32;20073;-78
2021/06/14 07:38:51;;;;;;;5.60;3.92;;;;;;;22.20;55.86;101054.16;4417781;32;20467;-76
2021/06/14 07:41:17;;;;;;;5.47;3.87;;;;;;;22.22;55.96;101063.03;4414255;32;20418;-73
2021/06/14 07:43:43;;;;;;;7.95;4.05;;;;;;;22.10;56.02;101047.06;4418648;32;20081;-74
2021/06/14 07:46:09;;;;;;;11.63;4.35;;;;;;;22.25;55.81;101059.16;4415559;32;20070;-74
2021/06/14 07:48:35;;;;;;;11.95;5.00;;;;;;;22.34;55.64;101072.47;4416459;32;20510;-76
2021/06/14 07:51:03;;;;;;;9.25;4.40;;;;;;;22.31;55.72;101067.78;4415192;32;20123;-74
2021/06/14 07:53:29;;;;;;;8.18;4.20;;;;;;;22.25;55.54;101066.94;4419079;32;20460;-72
2021/06/14 07:55:56;;;;;;;13.73;4.57;;;;;;;22.19;55.74;101069.78;4417237;32;20577;-73
2021/06/14 07:58:23;;;;;;;6.60;3.83;;;;;;;22.33;55.58;101065.19;4415664;32;20662;-73
2021/06/14 08:00:50;;;;;;;9.10;3.90;;;;;;;22.57;54.64;101077.84;4415539;32;20081;-72
2021/06/14 08:03:16;;;;;;;7.07;3.80;;;;;;;22.46;54.63;101066.28;4414557;32;20611;-72
2021/06/14 08:05:43;;;;;;;9.00;3.58;;;;;;;22.79;53.71;101075.09;4416325;32;20085;-74
2021/06/14 08:08:11;;;;;;;8.35;3.40;;;;;;;23.28;52.59;101068.75;4419840;32;20435;-73
2021/06/14 08:10:37;;;;;;;7.28;3.40;;;;;;;23.72;51.18;101070.91;4418592;32;20114;-73
2021/06/14 08:13:03;;;;;;;8.90;3.10;;;;;;;24.05;49.64;101061.53;4416879;32;20105;-72
2021/06/14 08:15:30;;;;;;;5.60;3.30;;;;;;;24.04;49.75;101068.56;4419242;32;20093;-76
2021/06/14 08:18:07;;;;;;;9.88;3.90;;;;;;;23.93;49.96;101069.31;4419534;32;20041;-76
2021/06/14 08:20:41;;;;;;;6.20;3.45;;;;;;;24.23;49.31;101070.38;4415260;32;20041;-77
2021/06/14 08:25:53;;;;;;;5.25;3.20;;;;;;;23.96;49.89;101061.78;4416938;32;20123;-76
2021/06/14 08:28:19;;;;;;;7.10;2.97;;;;;;;23.96;50.00;101068.31;4421114;32;20053;-78
2021/06/14 08:30:45;;;;;;;8.57;3.33;;;;;;;24.00;50.04;101073.78;4420652;32;20089;-77
2021/06/14 08:33:11;;;;;;;6.43;3.35;;;;;;;23.84;50.13;101095.44;4417670;32;21109;-73
2021/06/14 08:35:37;;;;;;;4.20;3.03;;;;;;;23.70;50.40;101089.97;4419361;32;20429;-74
2021/06/14 08:38:04;;;;;;;6.10;3.58;;;;;;;23.56;50.73;101100.41;4408978;32;20070;-75
2021/06/14 08:40:33;;;;;;;5.60;3.12;;;;;;;23.54;51.15;101088.66;4415779;32;20081;-73
2021/06/14 08:43:03;;;;;;;6.47;3.00;;;;;;;24.13;50.00;101089.22;4415694;32;20072;-72
2021/06/14 08:45:34;;;;;;;4.20;2.75;;;;;;;24.61;48.83;101094.63;4413130;32;20434;-74
2021/06/14 08:48:00;;;;;;;4.87;3.05;;;;;;;24.49;49.14;101101.69;4399739;32;20447;-73
2021/06/14 08:50:27;;;;;;;3.90;2.65;;;;;;;24.80;48.21;101113.69;4407074;32;20034;-73
2021/06/14 08:52:54;;;;;;;4.60;3.00;;;;;;;24.04;49.54;101115.34;4416567;32;20800;-73
2021/06/14 08:55:20;;;;;;;7.75;2.83;;;;;;;23.90;50.15;101133.59;4417555;32;20052;-74
2021/06/14 08:57:46;;;;;;;3.92;2.40;;;;;;;24.07;49.84;101125.03;4418774;32;20077;-72
2021/06/14 09:00:18;;;;;;;6.37;2.40;;;;;;;24.55;48.87;101131.25;4419499;32;20034;-74
2021/06/14 09:02:45;;;;;;;7.65;2.80;;;;;;;24.41;48.79;101135.19;4418129;32;20446;-72
2021/06/14 09:05:12;;;;;;;6.30;2.80;;;;;;;24.23;49.27;101145.16;4418242;32;20191;-73
2021/06/14 09:07:39;;;;;;;4.68;2.10;;;;;;;24.40;49.12;101140.19;4419391;32;20489;-73
2021/06/14 09:10:05;;;;;;;6.10;1.87;;;;;;;24.27;49.66;101137.03;4413380;32;20421;-75
2021/06/14 09:12:47;;;;;;;5.07;2.20;;;;;;;24.26;49.58;101164.25;4414689;32;20469;-72
2021/06/14 09:15:16;;;;;;;6.60;2.05;;;;;;;24.18;50.22;101154.59;4417439;32;20085;-74
2021/06/14 09:18:02;;;;;;;4.30;1.67;;;;;;;24.20;50.06;101156.94;4418948;32;20500;-72
2021/06/14 09:20:28;;;;;;;6.65;1.70;;;;;;;24.36;49.71;101151.16;4411766;32;20093;-75
2021/06/14 09:22:54;;;;;;;1.85;1.10;;;;;;;24.79;48.62;101158.16;4412784;32;20131;-74
2021/06/14 09:25:20;;;;;;;2.55;1.20;;;;;;;24.59;48.44;101161.34;4419048;32;20529;-73
2021/06/14 09:27:49;;;;;;;2.28;1.00;;;;;;;24.23;49.29;101162.41;4407304;32;20042;-73
2021/06/14 09:35:36;;;;;;;5.15;1.15;;;;;;;25.14;47.21;101171.94;4419368;31;722942;-74
2021/06/14 09:43:29;;;;;;;3.10;1.17;;;;;;;24.98;47.02;101170.66;4421260;31;841304;-74
2021/06/14 09:45:56;;;;;;;6.53;0.90;;;;;;;24.87;47.00;101179.34;4441519;32;20083;-73
2021/06/14 09:48:27;;;;;;;2.00;1.20;;;;;;;25.57;45.46;101173.06;4442740;32;20132;-73
2021/06/14 09:50:55;;;;;;;6.20;1.20;;;;;;;26.01;44.15;101164.12;4448213;32;20135;-74
2021/06/14 09:53:26;;;;;;;2.17;0.80;;;;;;;26.61;43.22;101176.47;4448372;32;20136;-73
2021/06/14 09:55:53;;;;;;;2.90;0.77;;;;;;;26.63;42.71;101171.75;4434856;32;20072;-75
2021/06/14 10:03:47;;;;;;;2.60;0.80;;;;;;;27.15;41.03;101186.66;4429363;31;695918;-73
2021/06/14 10:06:26;;;;;;;1.67;0.88;;;;;;;27.15;41.03;101186.66;4436765;32;20160;-74
2021/06/14 10:08:53;;;;;;;5.43;1.05;;;;;;;26.33;42.33;101185.41;4440757;32;20112;-74
2021/06/14 10:11:18;;;;;;;1.67;0.60;;;;;;;26.47;41.55;101189.97;4438979;32;20526;-74
2021/06/14 10:13:48;;;;;;;3.55;0.80;;;;;;;26.85;40.80;101193.84;4433109;32;20559;-71
2021/06/14 10:16:16;;;;;;;1.90;1.20;;;;;;;27.01;40.21;101184.19;4443250;32;20697;-73
2021/06/14 10:18:51;;;;;;;4.05;1.00;;;;;;;26.78;41.10;101185.75;4442900;32;20069;-72
2021/06/14 10:24:05;;;;;;;1.02;0.85;;;;;;;27.45;39.62;101209.69;4415258;31;674452;-72
2021/06/14 10:26:32;;;;;;;3.37;0.90;;;;;;;27.45;39.62;101209.69;4414661;32;20104;-72
2021/06/14 10:28:58;;;;;;;3.50;0.90;;;;;;;26.98;39.87;101196.84;4414047;32;20078;-72
2021/06/14 10:31:24;;;;;;;2.05;0.80;;;;;;;27.11;39.72;101209.28;4419929;32;20076;-74
2021/06/14 10:33:53;;;;;;;3.83;0.90;;;;;;;26.98;39.40;101214.19;4418316;32;20317;-73
2021/06/14 10:36:26;;;;;;;1.45;0.80;;;;;;;27.15;39.06;101214.75;4421622;32;20054;-72
2021/06/14 10:38:54;;;;;;;2.28;0.85;;;;;;;26.94;39.25;101222.38;4418402;32;20542;-72
2021/06/14 10:41:21;;;;;;;1.25;0.80;;;;;;;26.71;39.31;101221.00;4417098;32;20084;-73
2021/06/14 10:43:48;;;;;;;2.72;0.80;;;;;;;26.79;38.99;101228.53;4409460;32;20073;-72
2021/06/14 10:46:15;;;;;;;1.08;0.88;;;;;;;27.07;38.77;101234.84;4414086;32;20104;-73
2021/06/14 10:48:42;;;;;;;0.80;0.80;;;;;;;26.97;38.75;101224.19;4420436;32;20096;-72
2021/06/14 10:51:15;;;;;;;0.90;0.73;;;;;;;26.25;40.11;101236.34;4417695;32;20065;-72
2021/06/14 10:53:41;;;;;;;1.02;0.88;;;;;;;26.49;39.79;101244.28;4415472;32;20143;-73
2021/06/14 10:56:08;;;;;;;2.55;1.05;;;;;;;26.49;39.68;101238.50;4418330;32;20319;-73
2021/06/14 10:58:34;;;;;;;1.00;0.57;;;;;;;26.21;40.46;101235.06;4419945;32;20442;-76
2021/06/14 11:01:15;;;;;;;1.87;0.77;;;;;;;26.60;39.54;101233.41;4414310;32;20477;-77
2021/06/14 11:08:58;;;;;;;2.17;0.65;;;;;;;27.11;39.11;101260.50;4409984;31;713491;-76
2021/06/14 11:11:24;;;;;;;1.87;0.60;;;;;;;27.11;39.11;101260.50;4431542;32;20048;-77
2021/06/14 11:13:51;;;;;;;0.70;0.60;;;;;;;26.73;39.48;101253.81;4433639;32;20424;-75
2021/06/14 11:16:18;;;;;;;2.17;0.70;;;;;;;27.07;38.76;101255.06;4430903;32;20080;-74
2021/06/14 11:18:45;;;;;;;2.55;0.70;;;;;;;26.76;38.91;101255.62;4431370;32;20638;-76
2021/06/14 11:23:50;;;;;;;0.80;0.60;;;;;;;26.26;40.59;101260.22;4444042;31;706348;-73
2021/06/14 11:26:31;;;;;;;0.98;0.88;;;;;;;26.26;40.59;101260.22;4459752;32;20075;-74
2021/06/14 11:28:59;;;;;;;0.50;0.40;;;;;;;25.41;41.92;101266.16;4455364;32;20505;-72
2021/06/14 11:31:27;;;;;;;2.08;0.40;;;;;;;25.30;42.20;101260.37;4456526;32;20634;-72
2021/06/14 11:34:01;;;;;;;2.22;0.68;;;;;;;25.24;42.57;101256.72;4457732;32;20552;-74
2021/06/14 11:36:30;;;;;;;4.15;0.62;;;;;;;25.31;41.75;101248.38;4454068;32;20080;-73
2021/06/14 11:38:58;;;;;;;1.73;0.60;;;;;;;25.33;41.61;101260.16;4457807;32;20095;-73
2021/06/14 11:41:28;;;;;;;2.22;0.50;;;;;;;25.59;40.78;101250.34;4451726;32;20208;-77
2021/06/14 11:44:17;;;;;;;8.55;1.30;;;;;;;25.62;40.85;101243.53;4459585;32;20100;-76
2021/06/14 11:46:43;;;;;;;1.02;0.50;;;;;;;25.97;40.21;101237.81;4456036;32;20033;-76
2021/06/14 11:49:10;;;;;;;3.92;0.60;;;;;;;26.37;39.27;101249.38;4452973;32;20419;-75
2021/06/14 11:51:36;;;;;;;1.62;0.47;;;;;;;26.17;39.19;101254.78;4451325;32;20073;-77
2021/06/14 11:54:03;;;;;;;3.20;0.68;;;;;;;26.43;39.01;101234.88;4455174;32;20156;-76
2021/06/14 11:56:36;;;;;;;3.12;0.60;;;;;;;26.59;38.69;101251.28;4456490;32;20084;-76
2021/06/14 11:59:04;;;;;;;2.67;0.60;;;;;;;26.61;38.77;101245.75;4456316;32;20961;-76
2021/06/14 12:01:34;;;;;;;1.77;0.65;;;;;;;26.39;38.95;101248.84;4447074;32;20087;-75